Time;durP1;ratioP1;P1;durP2;ratioP2;P2;SDS_P1;SDS_P2;PMS_P1;PMS_P2;Temp;Humidity;BMP_temperature;BMP_pressure;BME280_temperature;BME280_humidity;BME280_pressure;Samples;Min_cycle;Max_cycle;Signal;HPM_P1;HPM_P2
2022/03/10 00:01:34;;;;;;;13.45;10.73;;;;;;;2.32;81.11;102496.41;5043798;28;20033;-78
2022/03/10 00:04:03;;;;;;;17.38;10.52;;;;;;;2.31;80.95;102501.53;4992421;28;20050;-78
2022/03/10 00:06:31;;;;;;;13.27;10.88;;;;;;;2.27;81.42;102508.22;5004566;28;20054;-78
2022/03/10 00:09:02;;;;;;;15.73;9.83;;;;;;;2.21;80.64;102513.06;4992086;28;20387;-77
2022/03/10 00:11:30;;;;;;;15.27;11.15;;;;;;;2.14;81.18;102508.25;4993203;28;20034;-78
2022/03/10 00:13:59;;;;;;;17.75;11.10;;;;;;;2.08;81.42;102502.63;5010865;28;20056;-77
2022/03/10 00:16:28;;;;;;;13.88;11.13;;;;;;;2.03;82.16;102515.34;5047367;28;20292;-78
2022/03/10 00:18:56;;;;;;;15.70;10.70;;;;;;;2.01;81.77;102514.38;5033216;28;20060;-77
2022/03/10 00:21:25;;;;;;;13.18;10.65;;;;;;;1.98;82.19;102514.16;5026723;28;20045;-78
2022/03/10 00:23:53;;;;;;;14.45;10.85;;;;;;;1.93;82.93;102513.88;5031593;28;20081;-78
2022/03/10 00:26:24;;;;;;;16.00;10.60;;;;;;;1.87;82.68;102510.88;5040996;28;20301;-78
2022/03/10 00:28:52;;;;;;;;;;;;;;;1.82;84.16;102514.88;5018297;28;20030;-78
2022/03/10 00:31:21;;;;;;;14.02;10.90;;;;;;;1.78;82.98;102515.47;5011237;28;20034;-78
2022/03/10 00:33:51;;;;;;;13.13;11.32;;;;;;;1.72;83.82;102508.16;5042105;28;20037;-79
2022/03/10 00:36:19;;;;;;;14.15;11.35;;;;;;;1.68;83.22;102505.25;5044050;28;20053;-78
2022/03/10 00:38:50;;;;;;;15.77;10.40;;;;;;;1.64;84.36;102509.34;5012707;28;20399;-78
2022/03/10 00:41:19;;;;;;;14.77;11.32;;;;;;;1.61;84.22;102514.34;5020835;28;20060;-78
2022/03/10 00:43:50;;;;;;;19.30;11.20;;;;;;;1.60;84.43;102515.13;5017679;28;20033;-77
2022/03/10 00:46:18;;;;;;;13.60;10.90;;;;;;;1.60;84.36;102516.84;5026224;28;20056;-79
2022/03/10 00:48:47;;;;;;;16.40;11.45;;;;;;;1.60;85.58;102515.13;5004060;28;20041;-78
2022/03/10 00:51:15;;;;;;;14.77;11.15;;;;;;;1.59;85.04;102513.34;4993451;28;20054;-78
2022/03/10 00:53:45;;;;;;;12.43;10.93;;;;;;;1.61;86.19;102516.03;4960909;28;20052;-77
2022/03/10 00:56:14;;;;;;;14.52;11.55;;;;;;;1.61;85.38;102516.03;5008356;28;20042;-79
2022/03/10 00:58:42;;;;;;;16.35;12.00;;;;;;;1.60;86.05;102517.75;5018469;28;20049;-78
2022/03/10 01:01:11;;;;;;;17.77;11.75;;;;;;;1.59;86.68;102522.81;5000920;28;20402;-79
2022/03/10 01:03:40;;;;;;;16.35;11.73;;;;;;;1.58;85.84;102524.53;5009225;28;20049;-78
2022/03/10 01:06:11;;;;;;;18.33;12.10;;;;;;;1.56;86.08;102511.44;4994910;28;20046;-78
2022/03/10 01:08:40;;;;;;;15.35;10.68;;;;;;;1.55;87.24;102520.03;4973591;28;20061;-78
2022/03/10 01:11:08;;;;;;;14.30;11.60;;;;;;;1.59;87.10;102520.22;5025314;28;20509;-78
2022/03/10 01:13:37;;;;;;;13.77;10.90;;;;;;;1.61;87.20;102532.53;5020978;28;20271;-78
2022/03/10 01:16:05;;;;;;;17.67;12.32;;;;;;;1.61;86.26;102522.16;5018320;28;20045;-80
2022/03/10 01:18:34;;;;;;;15.60;12.15;;;;;;;1.62;87.10;102526.53;5024442;28;20064;-78
2022/03/10 01:21:02;;;;;;;15.50;11.75;;;;;;;1.60;86.98;102512.53;5022171;28;20058;-78
2022/03/10 01:23:31;;;;;;;17.35;11.15;;;;;;;1.58;87.22;102518.44;5006534;28;20056;-78
2022/03/10 01:26:00;;;;;;;14.40;11.30;;;;;;;1.59;87.69;102505.56;5007964;28;20062;-78
2022/03/10 01:28:32;;;;;;;10.73;8.65;;;;;;;1.62;88.02;102512.66;5020278;28;20269;-78
2022/03/10 01:31:01;;;;;;;14.50;11.60;;;;;;;1.66;87.15;102506.84;4994806;28;20078;-77
2022/03/10 01:33:35;;;;;;;18.92;10.90;;;;;;;1.69;88.24;102501.88;5013360;28;20048;-77
2022/03/10 01:36:07;;;;;;;14.20;10.35;;;;;;;1.74;87.79;102501.38;4984640;28;20043;-77
2022/03/10 01:38:39;;;;;;;15.32;11.18;;;;;;;1.78;87.97;102502.47;5002420;28;20246;-79
2022/03/10 01:41:09;;;;;;;19.45;11.25;;;;;;;1.82;87.14;102504.47;5017009;28;20053;-78
2022/03/10 01:44:00;;;;;;;13.52;10.82;;;;;;;1.87;86.93;102510.88;4980431;28;20069;-78
2022/03/10 01:46:32;;;;;;;17.10;11.68;;;;;;;1.88;86.48;102506.56;4989935;28;20054;-78
2022/03/10 01:49:01;;;;;;;12.23;10.52;;;;;;;1.90;86.38;102510.16;5010666;28;20394;-78
2022/03/10 01:51:31;;;;;;;19.13;11.52;;;;;;;1.88;86.06;102507.47;5020195;28;20049;-78
2022/03/10 01:54:00;;;;;;;13.98;11.55;;;;;;;1.85;86.41;102504.69;5029069;28;20042;-78
2022/03/10 01:56:31;;;;;;;14.13;11.13;;;;;;;1.82;86.91;102490.56;5025617;28;20053;-78
2022/03/10 01:59:02;;;;;;;16.60;12.00;;;;;;;1.78;86.43;102492.06;5026576;28;20072;-77
2022/03/10 02:01:31;;;;;;;;;;;;;;;1.77;88.42;102495.47;5009854;28;20096;-78
2022/03/10 02:04:00;;;;;;;17.95;12.07;;;;;;;1.78;87.15;102489.47;5010854;28;19928;-79
2022/03/10 02:06:29;;;;;;;13.10;10.43;;;;;;;1.77;86.96;102482.47;5020767;28;20670;-79
2022/03/10 02:11:45;;;;;;;15.52;10.90;;;;;;;1.80;86.90;102490.47;5034518;28;20068;-78
2022/03/10 02:17:21;;;;;;;15.88;11.88;;;;;;;1.80;85.80;102486.97;5009275;28;20878;-79
2022/03/10 02:19:52;;;;;;;15.75;11.73;;;;;;;1.80;85.47;102497.38;5010311;28;20056;-79
2022/03/10 02:22:21;;;;;;;;;;;;;;;1.78;86.39;102494.69;5010130;28;20046;-79
2022/03/10 02:24:51;;;;;;;15.15;10.90;;;;;;;1.78;86.05;102497.28;5024607;28;19944;-78
2022/03/10 02:27:26;;;;;;;16.10;10.63;;;;;;;1.79;85.12;102491.25;5028366;28;20247;-78
2022/03/10 02:30:02;;;;;;;20.40;11.95;;;;;;;1.80;85.27;102498.28;5023257;28;20568;-79
2022/03/10 02:32:30;;;;;;;13.75;11.00;;;;;;;1.82;84.78;102496.66;5013270;28;20046;-79
2022/03/10 02:35:02;;;;;;;19.15;11.63;;;;;;;1.82;85.40;102500.97;4988911;28;20255;-80
2022/03/10 02:37:31;;;;;;;16.60;11.57;;;;;;;1.81;85.31;102506.97;5010511;28;20537;-80
2022/03/10 02:39:59;;;;;;;13.32;10.52;;;;;;;1.79;84.92;102509.44;5041711;28;20239;-78
2022/03/10 02:42:31;;;;;;;15.55;10.80;;;;;;;1.79;85.37;102508.56;5011489;28;20041;-78
2022/03/10 02:44:59;;;;;;;14.35;10.77;;;;;;;1.79;84.40;102517.25;4998057;28;20046;-79
2022/03/10 02:47:28;;;;;;;16.70;11.02;;;;;;;1.78;85.11;102515.47;4993060;28;20057;-79
2022/03/10 02:49:56;;;;;;;15.63;10.40;;;;;;;1.77;85.38;102518.84;4950806;28;20050;-78
2022/03/10 02:52:28;;;;;;;13.93;11.65;;;;;;;1.74;84.82;102518.69;4992321;28;20057;-80
2022/03/10 02:55:00;;;;;;;14.77;11.50;;;;;;;1.69;85.39;102517.47;4975067;28;20258;-78
2022/03/10 02:57:31;;;;;;;20.15;12.48;;;;;;;1.63;85.16;102514.47;4990283;28;20038;-79
2022/03/10 03:00:00;;;;;;;14.95;10.80;;;;;;;1.56;85.50;102511.44;5008883;28;20178;-79
2022/03/10 03:02:28;;;;;;;14.75;10.80;;;;;;;1.52;84.88;102506.84;5001219;28;20046;-79
2022/03/10 03:04:57;;;;;;;14.32;10.63;;;;;;;1.53;85.09;102510.31;5003255;28;20707;-79
2022/03/10 03:07:25;;;;;;;13.40;10.50;;;;;;;1.53;85.37;102508.66;5025347;28;20052;-79
2022/03/10 03:09:54;;;;;;;16.20;11.13;;;;;;;1.52;85.24;102512.03;5012110;28;20038;-78
2022/03/10 03:12:23;;;;;;;14.90;11.10;;;;;;;1.52;84.95;102514.63;5002065;28;20061;-80
2022/03/10 03:14:52;;;;;;;12.75;10.52;;;;;;;1.53;84.75;102518.13;5011834;28;20403;-79
2022/03/10 03:17:21;;;;;;;19.80;11.98;;;;;;;1.51;84.42;102505.06;5023435;28;20490;-79
2022/03/10 03:19:49;;;;;;;14.68;10.95;;;;;;;1.52;84.61;102512.03;5003351;28;20534;-78
2022/03/10 03:22:18;;;;;;;14.18;11.32;;;;;;;1.51;84.26;102512.84;5028241;28;20883;-79
2022/03/10 03:24:47;;;;;;;13.95;10.68;;;;;;;1.51;84.91;102512.84;4998414;28;20277;-78
2022/03/10 03:27:16;;;;;;;15.68;11.57;;;;;;;1.50;84.00;102516.22;5002434;28;20057;-78
2022/03/10 03:29:44;;;;;;;18.58;12.27;;;;;;;1.50;84.60;102517.94;5005239;28;20053;-79
2022/03/10 03:32:13;;;;;;;16.58;11.88;;;;;;;1.48;85.23;102519.53;5011401;28;20499;-78
2022/03/10 03:34:42;;;;;;;16.63;10.95;;;;;;;1.44;84.76;102513.22;5003702;28;20427;-79
2022/03/10 03:37:10;;;;;;;16.30;11.38;;;;;;;1.43;84.54;102519.22;4996061;28;20049;-79
2022/03/10 03:39:39;;;;;;;15.68;10.55;;;;;;;1.42;84.44;102527.81;5004567;28;20037;-79
2022/03/10 03:42:07;;;;;;;14.48;10.15;;;;;;;1.40;85.17;102523.28;5026093;28;20060;-79
2022/03/10 03:44:35;;;;;;;15.20;10.57;;;;;;;1.39;84.26;102526.72;4988390;28;20046;-79
2022/03/10 03:47:04;;;;;;;25.00;10.60;;;;;;;1.36;85.45;102524.78;5016330;28;20125;-79
2022/03/10 03:49:32;;;;;;;15.23;11.05;;;;;;;1.35;85.06;102531.69;5007349;28;20117;-79
2022/03/10 03:52:01;;;;;;;14.98;11.73;;;;;;;1.35;84.86;102528.19;4975383;28;20046;-78
2022/03/10 03:54:31;;;;;;;13.25;10.15;;;;;;;1.33;85.51;102533.28;5006333;28;20050;-78
2022/03/10 03:56:59;;;;;;;16.42;11.43;;;;;;;1.29;85.55;102523.50;5010023;28;20041;-80
2022/03/10 03:59:29;;;;;;;13.35;10.70;;;;;;;1.28;86.09;102536.34;5024888;28;20068;-80
2022/03/10 04:01:57;;;;;;;20.15;11.55;;;;;;;1.27;85.29;102534.56;5017821;28;20033;-79
2022/03/10 04:04:26;;;;;;;14.65;11.70;;;;;;;1.26;85.61;102536.25;4997838;28;20061;-79
2022/03/10 04:06:55;;;;;;;13.98;11.07;;;;;;;1.27;85.21;102547.56;5005593;28;20061;-79
2022/03/10 04:09:23;;;;;;;19.65;11.57;;;;;;;1.25;85.16;102544.84;5019200;28;20052;-79
2022/03/10 04:11:52;;;;;;;13.45;11.02;;;;;;;1.25;85.53;102544.84;5022173;28;20239;-79
2022/03/10 04:14:21;;;;;;;16.08;11.48;;;;;;;1.25;85.11;102551.72;5024819;28;20060;-78
2022/03/10 04:16:49;;;;;;;17.63;11.07;;;;;;;1.24;85.18;102555.13;5008655;28;20069;-78
2022/03/10 04:19:19;;;;;;;14.55;10.63;;;;;;;1.22;85.69;102549.84;5019459;28;20053;-80
2022/03/10 04:21:47;;;;;;;15.50;11.10;;;;;;;1.21;85.26;102550.66;5015527;28;20252;-79
2022/03/10 04:24:16;;;;;;;17.42;11.68;;;;;;;1.20;85.46;102553.13;5023852;28;20545;-79
2022/03/10 04:26:44;;;;;;;15.93;11.40;;;;;;;1.16;85.08;102557.22;5035048;28;20155;-79
2022/03/10 04:29:14;;;;;;;16.65;11.38;;;;;;;1.15;85.44;102551.13;5017900;28;20475;-79
2022/03/10 04:31:42;;;;;;;18.02;11.32;;;;;;;1.11;86.68;102551.69;5006995;28;20394;-79
2022/03/10 04:34:11;;;;;;;14.70;11.77;;;;;;;1.06;85.91;102550.50;5005753;28;20041;-79
2022/03/10 04:36:41;;;;;;;13.15;10.65;;;;;;;1.01;86.89;102554.44;5032599;28;20033;-79
2022/03/10 04:39:09;;;;;;;13.88;11.32;;;;;;;1.02;85.90;102563.13;5006040;28;20053;-80
2022/03/10 04:41:38;;;;;;;18.35;10.98;;;;;;;1.00;86.98;102568.22;5001082;28;20053;-79
2022/03/10 04:44:08;;;;;;;15.95;12.07;;;;;;;0.98;86.04;102567.22;5008791;28;20516;-79
2022/03/10 04:46:37;;;;;;;15.03;11.47;;;;;;;0.95;86.28;102575.69;5007420;28;20045;-80
2022/03/10 04:49:06;;;;;;;16.30;11.27;;;;;;;0.92;86.23;102562.47;5034711;28;20054;-79
2022/03/10 04:51:34;;;;;;;15.65;11.25;;;;;;;0.89;87.59;102554.50;5026595;28;20398;-79
2022/03/10 04:54:03;;;;;;;19.60;12.05;;;;;;;0.86;87.04;102554.28;5000775;28;20247;-78
2022/03/10 04:56:31;;;;;;;16.45;12.23;;;;;;;0.84;87.28;102558.47;5005023;28;20042;-78
2022/03/10 04:58:59;;;;;;;18.23;11.20;;;;;;;0.82;86.70;102553.97;4987222;28;20179;-78
2022/03/10 05:01:30;;;;;;;15.98;11.10;;;;;;;0.82;87.96;102559.16;5018509;28;20049;-79
2022/03/10 05:03:59;;;;;;;17.08;11.55;;;;;;;0.85;87.22;102560.28;5010092;28;20029;-79
2022/03/10 05:06:28;;;;;;;17.02;11.77;;;;;;;0.88;86.69;102559.59;5015723;28;20052;-79
2022/03/10 05:08:56;;;;;;;19.13;11.70;;;;;;;0.90;87.13;102560.59;5028882;28;20061;-78
2022/03/10 05:11:24;;;;;;;17.33;12.65;;;;;;;0.91;87.03;102565.91;5017827;28;20045;-79
2022/03/10 05:13:56;;;;;;;15.50;11.70;;;;;;;0.92;86.88;102574.56;5039440;28;20553;-78
2022/03/10 05:16:24;;;;;;;17.20;12.52;;;;;;;0.88;87.33;102580.34;5026439;28;20403;-80
2022/03/10 05:18:53;;;;;;;18.83;13.55;;;;;;;0.84;87.10;102578.34;5025934;28;20045;-79
2022/03/10 05:21:22;;;;;;;14.52;10.95;;;;;;;0.82;87.98;102580.81;5009695;28;20056;-79
2022/03/10 05:23:52;;;;;;;25.27;12.38;;;;;;;0.80;87.56;102590.19;5021257;28;20052;-79
2022/03/10 05:26:20;;;;;;;16.90;11.87;;;;;;;0.77;87.12;102585.66;5032442;28;20041;-80
2022/03/10 05:28:49;;;;;;;15.23;11.68;;;;;;;0.74;88.38;102577.69;5008068;28;20970;-80
2022/03/10 05:31:17;;;;;;;16.02;11.48;;;;;;;0.69;88.66;102575.56;5014167;28;20034;-78
2022/03/10 05:33:46;;;;;;;18.70;12.48;;;;;;;0.63;89.08;102576.03;5026033;28;20373;-78
2022/03/10 05:36:14;;;;;;;15.70;12.02;;;;;;;0.58;88.80;102569.59;5005118;28;20376;-79
2022/03/10 05:38:44;;;;;;;16.10;12.27;;;;;;;0.54;88.76;102575.38;5007282;28;20561;-79
2022/03/10 05:41:13;;;;;;;15.75;11.77;;;;;;;0.51;89.99;102578.66;5019413;28;20053;-78
2022/03/10 05:43:42;;;;;;;17.13;12.20;;;;;;;0.51;88.96;102585.50;5022730;28;20049;-80
2022/03/10 05:46:11;;;;;;;19.08;11.82;;;;;;;0.52;89.83;102596.00;5010789;28;20054;-78
2022/03/10 05:48:39;;;;;;;16.35;12.15;;;;;;;0.53;89.50;102586.50;5006680;28;20050;-79
2022/03/10 05:51:08;;;;;;;15.30;11.32;;;;;;;0.53;89.58;102586.50;5030062;28;20042;-78
2022/03/10 05:53:37;;;;;;;21.02;12.02;;;;;;;0.53;90.75;102582.25;5025978;28;20045;-78
2022/03/10 05:56:05;;;;;;;16.85;12.48;;;;;;;0.53;90.50;102573.53;5018274;28;20046;-78
2022/03/10 05:58:36;;;;;;;14.15;11.13;;;;;;;0.52;89.78;102574.34;4990885;28;20064;-80
2022/03/10 06:01:05;;;;;;;20.25;13.20;;;;;;;0.56;90.80;102573.78;5014503;28;20060;-79
2022/03/10 06:03:34;;;;;;;19.75;12.88;;;;;;;0.64;90.41;102577.81;5016285;28;20136;-79
2022/03/10 06:06:12;;;;;;;16.05;11.82;;;;;;;0.72;89.98;102579.28;4993927;28;20045;-79
2022/03/10 06:08:40;;;;;;;17.55;12.05;;;;;;;0.80;89.93;102585.00;4985866;28;20388;-79
2022/03/10 06:11:09;;;;;;;14.60;11.48;;;;;;;0.89;89.63;102592.50;5011218;28;20045;-79
2022/03/10 06:13:38;;;;;;;17.90;12.20;;;;;;;0.92;88.64;102596.22;5013703;28;20042;-79
2022/03/10 06:16:27;;;;;;;17.85;12.45;;;;;;;0.94;88.87;102594.63;5024331;28;20046;-79
2022/03/10 06:18:56;;;;;;;14.95;10.73;;;;;;;0.97;88.91;102596.56;4995225;28;20045;-78
2022/03/10 06:21:26;;;;;;;13.68;11.35;;;;;;;0.99;89.33;102601.88;4996070;28;20050;-78
2022/03/10 06:23:57;;;;;;;18.13;12.73;;;;;;;1.02;88.93;102603.00;5014453;28;20625;-79
2022/03/10 06:26:25;;;;;;;;;;;;;;;1.06;90.62;102601.50;5022004;28;22143;-78
2022/03/10 06:28:54;;;;;;;16.38;12.15;;;;;;;1.10;89.13;102607.03;5023519;28;19925;-80
2022/03/10 06:31:24;;;;;;;16.05;11.85;;;;;;;1.15;89.51;102604.72;4992089;28;20042;-80
2022/03/10 06:33:54;;;;;;;;;;;;;;;1.20;89.26;102607.66;5012645;28;20049;-77
2022/03/10 06:36:27;;;;;;;16.08;10.93;;;;;;;1.24;88.94;102604.47;5036395;28;20378;-79
2022/03/10 06:39:00;;;;;;;14.93;10.80;;;;;;;1.29;89.12;102606.59;4990640;28;20054;-80
2022/03/10 06:41:30;;;;;;;15.40;11.45;;;;;;;1.36;88.83;102597.50;5004701;28;20045;-78
2022/03/10 06:43:58;;;;;;;19.42;12.27;;;;;;;1.44;88.93;102600.66;5002916;28;20077;-78
2022/03/10 06:46:27;;;;;;;15.35;11.05;;;;;;;1.55;88.46;102602.28;4967061;28;20426;-78
2022/03/10 06:48:55;;;;;;;21.13;12.05;;;;;;;1.64;88.51;102602.00;4999682;28;21469;-80
2022/03/10 06:51:24;;;;;;;17.20;11.13;;;;;;;1.75;87.99;102611.44;5006126;28;20049;-79
2022/03/10 06:53:54;;;;;;;15.45;11.48;;;;;;;1.90;87.92;102620.25;5015567;28;20045;-80
2022/03/10 06:56:25;;;;;;;18.60;12.27;;;;;;;2.23;87.67;102617.16;5003398;28;20065;-80
2022/03/10 06:58:54;;;;;;;17.85;11.90;;;;;;;2.57;86.85;102621.97;5022716;28;20536;-78
2022/03/10 07:01:22;;;;;;;18.13;12.20;;;;;;;2.95;87.05;102611.41;4988618;28;20050;-78
2022/03/10 07:03:53;;;;;;;19.00;11.63;;;;;;;3.23;86.08;102600.06;5018738;28;20052;-79
2022/03/10 07:06:22;;;;;;;15.77;12.43;;;;;;;3.37;85.40;102603.53;4993478;28;20063;-78
2022/03/10 07:08:51;;;;;;;19.08;11.80;;;;;;;3.70;85.64;102605.56;4980466;28;20062;-83
2022/03/10 07:11:20;;;;;;;16.00;11.95;;;;;;;4.26;84.41;102619.19;5011820;28;20041;-85
2022/03/10 07:13:52;;;;;;;16.40;12.10;;;;;;;4.70;81.89;102610.34;4996811;28;20053;-83
2022/03/10 07:16:20;;;;;;;16.75;11.80;;;;;;;4.90;80.79;102608.84;4972724;28;20032;-84
2022/03/10 07:18:52;;;;;;;16.85;11.60;;;;;;;4.81;81.09;102609.22;5027996;28;20053;-83
2022/03/10 07:21:23;;;;;;;16.83;11.75;;;;;;;4.65;80.82;102612.72;5029482;28;20049;-85
2022/03/10 07:23:54;;;;;;;15.20;10.93;;;;;;;4.51;80.42;102623.19;5015484;28;20048;-84
2022/03/10 07:26:23;;;;;;;15.38;11.93;;;;;;;4.37;81.53;102625.03;5026589;28;20053;-84
2022/03/10 07:28:56;;;;;;;14.95;12.38;;;;;;;4.26;82.41;102613.97;5016793;28;20052;-84
2022/03/10 07:31:28;;;;;;;15.10;11.82;;;;;;;4.16;83.34;102622.97;5009588;28;20870;-84
2022/03/10 07:33:58;;;;;;;15.85;11.90;;;;;;;4.13;84.61;102614.97;4988001;28;20041;-85
2022/03/10 07:36:27;;;;;;;15.15;11.52;;;;;;;4.19;85.23;102624.84;5019040;28;20056;-84
2022/03/10 07:38:56;;;;;;;18.10;12.68;;;;;;;4.30;87.17;102626.38;5029678;28;20051;-84
2022/03/10 07:41:24;;;;;;;18.48;12.60;;;;;;;4.58;87.49;102627.94;5039043;28;20048;-84
2022/03/10 07:43:56;;;;;;;14.32;12.20;;;;;;;5.04;89.09;102628.75;4992844;28;20052;-84
2022/03/10 07:46:25;;;;;;;16.17;12.23;;;;;;;5.58;88.41;102620.28;4996760;28;20289;-84
2022/03/10 07:48:54;;;;;;;15.10;11.77;;;;;;;6.08;86.77;102621.97;4999775;28;20044;-83
2022/03/10 07:51:22;;;;;;;15.23;12.55;;;;;;;6.56;86.12;102611.19;5044300;28;20049;-84
2022/03/10 07:53:53;;;;;;;16.90;12.27;;;;;;;6.97;83.86;102613.13;5034190;28;20140;-84
2022/03/10 07:56:22;;;;;;;17.70;11.68;;;;;;;7.28;81.53;102609.31;5029338;28;20054;-84
2022/03/10 07:58:50;;;;;;;14.63;10.85;;;;;;;7.57;80.52;102605.34;5034742;28;20034;-85
2022/03/10 08:01:19;;;;;;;15.88;11.75;;;;;;;7.95;81.41;102613.06;5011347;28;20151;-84
2022/03/10 08:03:51;;;;;;;16.75;11.50;;;;;;;8.23;78.08;102615.13;4980715;28;20526;-84
2022/03/10 08:06:21;;;;;;;18.33;12.65;;;;;;;8.50;78.53;102596.97;5011298;28;20338;-84
2022/03/10 08:08:50;;;;;;;13.07;11.60;;;;;;;8.76;77.53;102600.63;5012791;28;20053;-84
2022/03/10 08:11:19;;;;;;;13.77;10.90;;;;;;;8.99;76.95;102595.34;5007695;28;20080;-84
2022/03/10 08:13:48;;;;;;;13.07;11.15;;;;;;;9.18;73.47;102592.53;5040656;28;20049;-86
2022/03/10 08:16:20;;;;;;;16.15;10.98;;;;;;;9.24;71.97;102589.25;5001773;28;20033;-85
2022/03/10 08:18:49;;;;;;;17.80;12.13;;;;;;;9.32;71.33;102592.19;5014169;28;20056;-83
2022/03/10 08:21:20;;;;;;;14.32;11.68;;;;;;;9.42;71.93;102589.03;4993210;28;20048;-84
2022/03/10 08:23:53;;;;;;;13.32;11.70;;;;;;;9.49;70.44;102582.22;5024525;28;20124;-85
2022/03/10 08:26:21;;;;;;;18.10;12.93;;;;;;;9.56;69.94;102585.16;5030219;28;20049;-85
2022/03/10 08:28:52;;;;;;;15.88;11.75;;;;;;;9.63;69.57;102588.00;5032969;28;20033;-85
2022/03/10 08:31:21;;;;;;;15.15;12.32;;;;;;;9.65;68.43;102581.06;5027169;28;20038;-84
2022/03/10 08:33:51;;;;;;;15.10;11.85;;;;;;;9.76;68.87;102574.41;5000060;28;20048;-84
2022/03/10 08:36:19;;;;;;;16.52;11.82;;;;;;;9.89;68.86;102581.88;5017811;28;20290;-84
2022/03/10 08:38:48;;;;;;;14.48;11.27;;;;;;;10.03;68.29;102579.72;5021510;28;20391;-83
2022/03/10 08:41:18;;;;;;;12.70;11.02;;;;;;;10.19;67.29;102574.94;5025985;28;20041;-84
2022/03/10 08:43:46;;;;;;;12.73;11.43;;;;;;;10.18;65.35;102576.69;5012927;28;20048;-83
2022/03/10 08:46:15;;;;;;;13.55;11.40;;;;;;;10.24;65.90;102576.00;4998848;28;20075;-84
2022/03/10 08:48:45;;;;;;;18.13;11.48;;;;;;;10.28;65.15;102569.97;5035505;28;20034;-84
2022/03/10 08:51:13;;;;;;;17.73;11.98;;;;;;;10.36;64.63;102570.25;5013259;28;20046;-84
2022/03/10 08:53:42;;;;;;;12.02;10.80;;;;;;;10.39;62.65;102580.91;5022882;28;20042;-84
2022/03/10 08:56:10;;;;;;;15.98;11.13;;;;;;;10.39;62.51;102580.91;5035048;28;20057;-83
2022/03/10 08:58:39;;;;;;;12.45;11.13;;;;;;;10.38;62.10;102571.19;5033481;28;20041;-84
2022/03/10 09:01:08;;;;;;;14.30;11.20;;;;;;;10.41;61.56;102568.66;5028083;28;20041;-85
2022/03/10 09:03:51;;;;;;;14.80;11.63;;;;;;;10.44;60.19;102568.75;5006149;28;20048;-83
2022/03/10 09:06:23;;;;;;;15.98;12.35;;;;;;;10.45;59.67;102568.81;5043337;28;20052;-84
2022/03/10 09:08:51;;;;;;;16.52;11.65;;;;;;;10.45;58.90;102565.25;5022825;28;20054;-84
2022/03/10 09:11:20;;;;;;;14.00;11.02;;;;;;;10.51;59.46;102565.47;5006572;28;20059;-85
2022/03/10 09:13:48;;;;;;;15.65;11.43;;;;;;;10.60;57.92;102557.81;5030683;28;20037;-85
2022/03/10 09:16:18;;;;;;;14.45;11.15;;;;;;;10.60;56.84;102570.13;4995253;28;20049;-85
2022/03/10 09:18:50;;;;;;;14.88;10.65;;;;;;;10.58;56.69;102558.63;5009165;28;20057;-83
2022/03/10 09:21:19;;;;;;;12.25;11.00;;;;;;;10.55;55.54;102567.34;5006312;28;20060;-84
2022/03/10 09:23:51;;;;;;;14.77;11.93;;;;;;;10.48;55.30;102568.88;5038242;28;20065;-83
2022/03/10 09:26:19;;;;;;;13.95;10.50;;;;;;;10.37;54.48;102567.66;5004571;28;20054;-83
2022/03/10 09:28:48;;;;;;;14.40;11.77;;;;;;;10.27;54.27;102566.44;5015522;28;20057;-83
2022/03/10 09:31:25;;;;;;;13.00;11.15;;;;;;;10.17;54.80;102564.38;5031275;28;20356;-83
2022/03/10 09:33:54;;;;;;;15.18;11.52;;;;;;;10.06;54.71;102550.84;5017123;28;20053;-83
2022/03/10 09:36:26;;;;;;;15.02;11.95;;;;;;;9.91;55.00;102556.50;5020981;28;20038;-83
2022/03/10 09:38:54;;;;;;;14.82;10.77;;;;;;;9.84;55.65;102553.63;5039990;28;20556;-83
2022/03/10 09:41:24;;;;;;;15.57;10.93;;;;;;;9.77;55.38;102557.75;5005874;28;20041;-83
2022/03/10 09:43:53;;;;;;;19.70;12.02;;;;;;;9.71;55.93;102547.03;5015838;28;20223;-83
2022/03/10 09:46:22;;;;;;;14.90;11.52;;;;;;;9.67;56.11;102551.28;5015343;28;20034;-84
2022/03/10 09:48:52;;;;;;;13.57;11.02;;;;;;;9.69;56.31;102546.09;5031337;28;20046;-84
2022/03/10 09:51:24;;;;;;;15.57;11.68;;;;;;;9.69;57.00;102541.72;5004006;28;20068;-83
2022/03/10 09:53:52;;;;;;;13.75;11.20;;;;;;;9.75;56.82;102548.91;5013468;28;20151;-84
2022/03/10 09:56:22;;;;;;;18.85;11.38;;;;;;;9.75;56.84;102543.66;5015595;28;20046;-84
2022/03/10 09:58:51;;;;;;;13.63;11.25;;;;;;;9.78;56.93;102553.41;5012417;28;20050;-83
2022/03/10 10:01:22;;;;;;;16.88;11.23;;;;;;;9.76;56.95;102541.09;5019377;28;20041;-83
2022/03/10 10:03:51;;;;;;;17.45;10.82;;;;;;;9.81;57.35;102550.88;5048785;28;20104;-83
2022/03/10 10:06:19;;;;;;;15.38;10.10;;;;;;;9.83;56.74;102546.53;5042186;28;20048;-84
2022/03/10 10:08:56;;;;;;;14.30;11.30;;;;;;;9.84;56.70;102548.34;5005161;28;20457;-84
2022/03/10 10:11:34;;;;;;;15.48;10.55;;;;;;;9.88;57.14;102551.13;5007714;28;20053;-83
2022/03/10 10:14:03;;;;;;;11.65;10.45;;;;;;;9.94;56.90;102534.63;5011968;28;20171;-83
2022/03/10 10:16:32;;;;;;;16.77;9.63;;;;;;;10.01;56.56;102531.34;5013489;28;20071;-83
2022/03/10 10:19:01;;;;;;;13.57;10.82;;;;;;;10.08;56.68;102528.09;5012518;28;20680;-83
2022/03/10 10:21:34;;;;;;;11.88;9.10;;;;;;;10.18;56.57;102531.00;4997757;28;20049;-83
2022/03/10 10:24:16;;;;;;;14.02;9.75;;;;;;;10.24;55.83;102524.19;5000195;28;20045;-83
2022/03/10 10:26:46;;;;;;;14.15;10.43;;;;;;;10.31;55.75;102523.56;4995997;28;20540;-83
2022/03/10 10:29:26;;;;;;;12.68;9.77;;;;;;;10.39;55.39;102526.44;5012151;28;20526;-84
2022/03/10 10:31:55;;;;;;;16.20;11.37;;;;;;;10.45;55.97;102524.00;5022925;28;20053;-84
2022/03/10 10:34:57;;;;;;;17.10;10.35;;;;;;;10.57;55.85;102519.94;5017022;28;20128;-83
2022/03/10 10:37:26;;;;;;;15.88;10.82;;;;;;;10.61;54.80;102509.53;4991541;28;20065;-84
2022/03/10 10:40:03;;;;;;;14.80;10.40;;;;;;;10.69;55.35;102504.50;4993614;28;20037;-83
2022/03/10 10:42:39;;;;;;;13.20;10.13;;;;;;;10.78;54.85;102511.78;4992607;28;20056;-83
2022/03/10 10:45:26;;;;;;;11.90;9.82;;;;;;;10.83;54.75;102500.53;5044128;28;20050;-84
2022/03/10 10:48:08;;;;;;;15.05;10.70;;;;;;;10.88;54.02;102508.53;5027288;28;20610;-84
2022/03/10 10:50:46;;;;;;;12.13;10.63;;;;;;;10.95;54.46;102504.34;5032234;28;20045;-83
2022/03/10 10:53:30;;;;;;;12.75;9.93;;;;;;;11.04;54.09;102504.59;5032568;28;20060;-83
2022/03/10 10:56:04;;;;;;;13.55;10.93;;;;;;;11.10;54.20;102495.09;5013874;28;20053;-83
2022/03/10 10:58:33;;;;;;;11.65;10.43;;;;;;;11.17;54.25;102493.53;4993187;28;20053;-83
2022/03/10 11:01:05;;;;;;;12.40;10.82;;;;;;;11.24;54.79;102492.81;4998004;28;20041;-84
2022/03/10 11:03:36;;;;;;;16.00;10.20;;;;;;;11.32;54.41;102493.94;5015848;28;20049;-83
2022/03/10 11:06:05;;;;;;;14.68;10.32;;;;;;;11.39;53.28;102499.38;5045983;28;20073;-83
2022/03/10 11:08:35;;;;;;;13.00;10.93;;;;;;;11.45;52.57;102496.91;5033946;28;20064;-84
2022/03/10 11:11:10;;;;;;;15.07;11.27;;;;;;;11.51;53.13;102497.97;4985190;28;20088;-83
2022/03/10 11:13:42;;;;;;;15.05;10.63;;;;;;;11.58;51.94;102493.72;5010645;28;20402;-86
2022/03/10 11:16:16;;;;;;;15.48;10.18;;;;;;;11.68;51.26;102497.47;5026254;28;20053;-85
2022/03/10 11:18:50;;;;;;;12.15;9.30;;;;;;;11.73;49.50;102500.25;5001132;28;20045;-83
2022/03/10 11:21:26;;;;;;;12.35;9.63;;;;;;;11.74;49.08;102491.44;4995127;28;20080;-85
2022/03/10 11:24:38;;;;;;;12.88;9.50;;;;;;;11.76;48.31;102479.16;5029943;28;20045;-84
2022/03/10 11:27:24;;;;;;;15.35;9.15;;;;;;;11.84;49.25;102475.00;5035543;28;20147;-84
2022/03/10 11:29:54;;;;;;;13.60;10.02;;;;;;;11.93;49.94;102475.25;5031554;28;20042;-84
2022/03/10 11:32:27;;;;;;;;;;;;;;;11.96;46.66;102470.00;5032075;28;20395;-84
2022/03/10 11:35:00;;;;;;;15.15;9.35;;;;;;;11.98;48.27;102472.69;5011597;28;20474;-84
2022/03/10 11:37:49;;;;;;;11.02;9.52;;;;;;;12.03;47.63;102466.66;5011360;28;20042;-85